Check out our new PWSWeather beta!
PWSweather.com
Personal Weather Stations
Station Observations
PENICUIKWS
PenicuikGB

PenicuikGB

Lat: 55.830932, Lon: -3.224533000000065

Elevation: 166

Station Type: Fine Offset

http://weather.penicuik.org

High Low Average
Temperature 79.9°F26.6°C 48.7°F9.3°C 64.5°F18.1°C
Dew Point 52.0°F11.1°C 43.1°F6.2°C 48.0°F8.9°C
Winds 5.4 mph 8.7 kmh Calm Calm 2.0 mph SSW3.2 kmh SSW
Wind Gusts 9.2 mph14.8 kmh 0.7 mph1.1 kmh 4.0 mph6.4 kmh
Humidity 89% 33% 59%
Pressure 30.25 in1024.4 mb 30.11 in1019.6 mb -
Precipitation 0.00 in0.0 mm - -
Hour Temp Dew Point Humidity Winds Wind Gusts Pressure Precip Precip Rate Daily Precip Total
12:00 AM 50.0°F10.0°C 46.0°F7.8°C 86% 0.4 mph NW0.6 kmh NW 0.7 mph1.1 kmh 30.12 in1020.0 mb 0.00 in0.0 mm 0.00 in0.0 mm 0.00 in0.0 mm
12:15 AM 49.5°F9.7°C 46.1°F7.8°C 88% 0.2 mph NW0.3 kmh NW 0.7 mph1.1 kmh 30.12 in1020.0 mb 0.00 in0.0 mm 0.00 in0.0 mm 0.00 in0.0 mm
12:30 AM 49.5°F9.7°C 46.1°F7.8°C 88% 0.7 mph WNW1.1 kmh WNW 1.6 mph2.6 kmh 30.11 in1019.6 mb 0.00 in0.0 mm 0.00 in0.0 mm 0.00 in0.0 mm
12:45 AM 49.6°F9.8°C 46.2°F7.9°C 88% 1.0 mph WSW1.6 kmh WSW 2.2 mph3.5 kmh 30.11 in1019.6 mb 0.00 in0.0 mm 0.00 in0.0 mm 0.00 in0.0 mm
01:00 AM 50.4°F10.2°C 46.6°F8.1°C 87% 1.1 mph SW1.8 kmh SW 2.2 mph3.5 kmh 30.11 in1019.6 mb 0.00 in0.0 mm 0.00 in0.0 mm 0.00 in0.0 mm
01:15 AM 50.2°F10.1°C 45.9°F7.7°C 85% 0.8 mph SSW1.3 kmh SSW 1.6 mph2.6 kmh 30.12 in1020.0 mb 0.00 in0.0 mm 0.00 in0.0 mm 0.00 in0.0 mm
01:30 AM 50.2°F10.1°C 45.9°F7.7°C 85% 0.3 mph W0.5 kmh W 0.7 mph1.1 kmh 30.13 in1020.3 mb 0.00 in0.0 mm 0.00 in0.0 mm 0.00 in0.0 mm
01:45 AM 50.4°F10.2°C 46.0°F7.8°C 85% 0.5 mph WNW0.8 kmh WNW 1.6 mph2.6 kmh 30.13 in1020.3 mb 0.00 in0.0 mm 0.00 in0.0 mm 0.00 in0.0 mm
02:00 AM 50.2°F10.1°C 45.9°F7.7°C 85% 0.3 mph NNW0.5 kmh NNW 1.6 mph2.6 kmh 30.13 in1020.3 mb 0.00 in0.0 mm 0.00 in0.0 mm 0.00 in0.0 mm
02:15 AM 50.2°F10.1°C 45.9°F7.7°C 85% 0.3 mph NNW0.5 kmh NNW 0.7 mph1.1 kmh 30.14 in1020.7 mb 0.00 in0.0 mm 0.00 in0.0 mm 0.00 in0.0 mm
02:30 AM 50.0°F10.0°C 45.7°F7.6°C 85% 0.3 mph WNW0.5 kmh WNW 1.6 mph2.6 kmh 30.13 in1020.3 mb 0.00 in0.0 mm 0.00 in0.0 mm 0.00 in0.0 mm
02:45 AM 50.0°F10.0°C 46.0°F7.8°C 86% 0.4 mph SW0.6 kmh SW 2.2 mph3.5 kmh 30.14 in1020.7 mb 0.00 in0.0 mm 0.00 in0.0 mm 0.00 in0.0 mm
03:00 AM 50.0°F10.0°C 46.0°F7.8°C 86% 0.3 mph NW0.5 kmh NW 0.7 mph1.1 kmh 30.13 in1020.3 mb 0.00 in0.0 mm 0.00 in0.0 mm 0.00 in0.0 mm
03:15 AM 49.6°F9.8°C 45.9°F7.7°C 87% 0.5 mph WSW0.8 kmh WSW 0.7 mph1.1 kmh 30.13 in1020.3 mb 0.00 in0.0 mm 0.00 in0.0 mm 0.00 in0.0 mm
03:30 AM 49.5°F9.7°C 45.8°F7.7°C 87% 0.4 mph WSW0.6 kmh WSW 1.6 mph2.6 kmh 30.14 in1020.7 mb 0.00 in0.0 mm 0.00 in0.0 mm 0.00 in0.0 mm
03:45 AM 49.3°F9.6°C 45.9°F7.7°C 88% 0.3 mph WSW0.5 kmh WSW 0.7 mph1.1 kmh 30.13 in1020.3 mb 0.00 in0.0 mm 0.00 in0.0 mm 0.00 in0.0 mm
04:00 AM 48.9°F9.4°C 45.5°F7.5°C 88% 0.5 mph NW0.8 kmh NW 1.6 mph2.6 kmh 30.14 in1020.7 mb 0.00 in0.0 mm 0.00 in0.0 mm 0.00 in0.0 mm
04:15 AM 48.7°F9.3°C 45.3°F7.4°C 88% 0.7 mph WSW1.1 kmh WSW 2.2 mph3.5 kmh 30.14 in1020.7 mb 0.00 in0.0 mm 0.00 in0.0 mm 0.00 in0.0 mm
04:30 AM 49.1°F9.5°C 46.0°F7.8°C 89% Calm Calm 0.7 mph1.1 kmh 30.15 in1021.0 mb 0.00 in0.0 mm 0.00 in0.0 mm 0.00 in0.0 mm
04:45 AM 49.8°F9.9°C 46.7°F8.2°C 89% 2.9 mph S4.7 kmh S 5.4 mph8.7 kmh 30.14 in1020.7 mb 0.00 in0.0 mm 0.00 in0.0 mm 0.00 in0.0 mm
05:00 AM 50.2°F10.1°C 46.5°F8.1°C 87% 0.4 mph W0.6 kmh W 1.6 mph2.6 kmh 30.14 in1020.7 mb 0.00 in0.0 mm 0.00 in0.0 mm 0.00 in0.0 mm
05:15 AM 54.0°F12.2°C 49.2°F9.6°C 84% 2.0 mph SE3.2 kmh SE 3.1 mph5.0 kmh 30.15 in1021.0 mb 0.00 in0.0 mm 0.00 in0.0 mm 0.00 in0.0 mm
05:30 AM 55.6°F13.1°C 48.5°F9.2°C 77% 0.6 mph NNW1.0 kmh NNW 1.6 mph2.6 kmh 30.15 in1021.0 mb 0.00 in0.0 mm 0.00 in0.0 mm 0.00 in0.0 mm
05:45 AM 61.7°F16.5°C 46.8°F8.2°C 58% 3.0 mph S4.8 kmh S 4.5 mph7.2 kmh 30.15 in1021.0 mb 0.00 in0.0 mm 0.00 in0.0 mm 0.00 in0.0 mm
06:00 AM 62.2°F16.8°C 47.7°F8.7°C 59% 3.2 mph SSE5.1 kmh SSE 6.0 mph9.7 kmh 30.14 in1020.7 mb 0.00 in0.0 mm 0.00 in0.0 mm 0.00 in0.0 mm
06:15 AM 66.2°F19.0°C 49.6°F9.8°C 55% 2.5 mph N4.0 kmh N 5.4 mph8.7 kmh 30.15 in1021.0 mb 0.00 in0.0 mm 0.00 in0.0 mm 0.00 in0.0 mm
06:30 AM 67.1°F19.5°C 48.9°F9.4°C 52% 2.8 mph SSW4.5 kmh SSW 5.4 mph8.7 kmh 30.16 in1021.3 mb 0.00 in0.0 mm 0.00 in0.0 mm 0.00 in0.0 mm
06:45 AM 68.4°F20.2°C 49.6°F9.8°C 51% 2.4 mph SSW3.9 kmh SSW 4.5 mph7.2 kmh 30.16 in1021.3 mb 0.00 in0.0 mm 0.00 in0.0 mm 0.00 in0.0 mm
07:00 AM 69.6°F20.9°C 49.1°F9.5°C 48% 2.6 mph SSW4.2 kmh SSW 4.5 mph7.2 kmh 30.15 in1021.0 mb 0.00 in0.0 mm 0.00 in0.0 mm 0.00 in0.0 mm
07:15 AM 70.0°F21.1°C 47.1°F8.4°C 44% 2.9 mph SW4.7 kmh SW 4.5 mph7.2 kmh 30.16 in1021.3 mb 0.00 in0.0 mm 0.00 in0.0 mm 0.00 in0.0 mm
07:30 AM 71.2°F21.8°C 47.6°F8.7°C 43% 2.7 mph S4.3 kmh S 3.8 mph6.1 kmh 30.16 in1021.3 mb 0.00 in0.0 mm 0.00 in0.0 mm 0.00 in0.0 mm
07:45 AM 73.2°F22.9°C 46.8°F8.2°C 39% 2.2 mph SE3.5 kmh SE 3.8 mph6.1 kmh 30.16 in1021.3 mb 0.00 in0.0 mm 0.00 in0.0 mm 0.00 in0.0 mm
08:00 AM 74.3°F23.5°C 44.9°F7.2°C 35% 2.2 mph WSW3.5 kmh WSW 3.8 mph6.1 kmh 30.16 in1021.3 mb 0.00 in0.0 mm 0.00 in0.0 mm 0.00 in0.0 mm
08:15 AM 71.2°F21.8°C 43.7°F6.5°C 37% 3.2 mph WNW5.1 kmh WNW 3.8 mph6.1 kmh 30.16 in1021.3 mb 0.00 in0.0 mm 0.00 in0.0 mm 0.00 in0.0 mm
08:30 AM 71.4°F21.9°C 43.1°F6.2°C 36% 3.3 mph SSW5.3 kmh SSW 5.4 mph8.7 kmh 30.16 in1021.3 mb 0.00 in0.0 mm 0.00 in0.0 mm 0.00 in0.0 mm
08:45 AM 71.4°F21.9°C 44.5°F6.9°C 38% 2.9 mph SE4.7 kmh SE 4.5 mph7.2 kmh 30.16 in1021.3 mb 0.00 in0.0 mm 0.00 in0.0 mm 0.00 in0.0 mm
09:00 AM 71.4°F21.9°C 44.5°F6.9°C 38% 3.2 mph WSW5.1 kmh WSW 3.8 mph6.1 kmh 30.15 in1021.0 mb 0.00 in0.0 mm 0.00 in0.0 mm 0.00 in0.0 mm
09:15 AM 71.4°F21.9°C 43.8°F6.6°C 37% 4.1 mph SSE6.6 kmh SSE 6.9 mph11.1 kmh 30.16 in1021.3 mb 0.00 in0.0 mm 0.00 in0.0 mm 0.00 in0.0 mm
09:30 AM 71.4°F21.9°C 44.5°F6.9°C 38% 3.3 mph S5.3 kmh S 5.4 mph8.7 kmh 30.16 in1021.3 mb 0.00 in0.0 mm 0.00 in0.0 mm 0.00 in0.0 mm
09:45 AM 73.0°F22.8°C 46.0°F7.8°C 38% 3.1 mph N5.0 kmh N 4.5 mph7.2 kmh 30.16 in1021.3 mb 0.00 in0.0 mm 0.00 in0.0 mm 0.00 in0.0 mm
10:00 AM 74.5°F23.6°C 46.5°F8.1°C 37% 3.5 mph WSW5.6 kmh WSW 5.4 mph8.7 kmh 30.17 in1021.7 mb 0.00 in0.0 mm 0.00 in0.0 mm 0.00 in0.0 mm
10:15 AM 73.9°F23.3°C 45.3°F7.4°C 36% 3.1 mph S5.0 kmh S 3.1 mph5.0 kmh 30.16 in1021.3 mb 0.00 in0.0 mm 0.00 in0.0 mm 0.00 in0.0 mm
10:30 AM 75.2°F24.0°C 44.9°F7.2°C 34% 3.3 mph S5.3 kmh S 5.4 mph8.7 kmh 30.17 in1021.7 mb 0.00 in0.0 mm 0.00 in0.0 mm 0.00 in0.0 mm
10:45 AM 76.3°F24.6°C 45.9°F7.7°C 34% 3.0 mph S4.8 kmh S 4.5 mph7.2 kmh 30.17 in1021.7 mb 0.00 in0.0 mm 0.00 in0.0 mm 0.00 in0.0 mm
11:00 AM 76.1°F24.5°C 47.2°F8.4°C 36% 3.6 mph SE5.8 kmh SE 5.4 mph8.7 kmh 30.17 in1021.7 mb 0.00 in0.0 mm 0.00 in0.0 mm 0.00 in0.0 mm
11:15 AM 77.7°F25.4°C 46.4°F8.0°C 33% 3.3 mph S5.3 kmh S 5.4 mph8.7 kmh 30.17 in1021.7 mb 0.00 in0.0 mm 0.00 in0.0 mm 0.00 in0.0 mm
11:30 AM 79.2°F26.2°C 47.6°F8.7°C 33% 3.1 mph NNE5.0 kmh NNE 4.5 mph7.2 kmh 30.17 in1021.7 mb 0.00 in0.0 mm 0.00 in0.0 mm 0.00 in0.0 mm
11:45 AM 79.2°F26.2°C 47.6°F8.7°C 33% 3.3 mph NNE5.3 kmh NNE 4.5 mph7.2 kmh 30.17 in1021.7 mb 0.00 in0.0 mm 0.00 in0.0 mm 0.00 in0.0 mm
12:00 PM 78.1°F25.6°C 49.0°F9.4°C 36% 3.5 mph N5.6 kmh N 4.5 mph7.2 kmh 30.17 in1021.7 mb 0.00 in0.0 mm 0.00 in0.0 mm 0.00 in0.0 mm
12:15 PM 79.0°F26.1°C 49.0°F9.4°C 35% 3.2 mph NE5.1 kmh NE 3.8 mph6.1 kmh 30.17 in1021.7 mb 0.00 in0.0 mm 0.00 in0.0 mm 0.00 in0.0 mm
12:30 PM 79.9°F26.6°C 48.2°F9.0°C 33% 2.9 mph ENE4.7 kmh ENE 4.5 mph7.2 kmh 30.17 in1021.7 mb 0.00 in0.0 mm 0.00 in0.0 mm 0.00 in0.0 mm
12:45 PM 79.0°F26.1°C 49.0°F9.4°C 35% 2.4 mph ENE3.9 kmh ENE 3.1 mph5.0 kmh 30.17 in1021.7 mb 0.00 in0.0 mm 0.00 in0.0 mm 0.00 in0.0 mm
01:00 PM 78.3°F25.7°C 49.2°F9.6°C 36% 2.9 mph SW4.7 kmh SW 4.5 mph7.2 kmh 30.17 in1021.7 mb 0.00 in0.0 mm 0.00 in0.0 mm 0.00 in0.0 mm
01:15 PM 79.7°F26.5°C 49.7°F9.8°C 35% 3.3 mph SSW5.3 kmh SSW 6.0 mph9.7 kmh 30.17 in1021.7 mb 0.00 in0.0 mm 0.00 in0.0 mm 0.00 in0.0 mm
01:30 PM 79.2°F26.2°C 47.6°F8.7°C 33% 4.7 mph SSW7.6 kmh SSW 6.9 mph11.1 kmh 30.18 in1022.0 mb 0.00 in0.0 mm 0.00 in0.0 mm 0.00 in0.0 mm
01:45 PM 77.7°F25.4°C 50.8°F10.4°C 39% 3.0 mph SSE4.8 kmh SSE 4.5 mph7.2 kmh 30.18 in1022.0 mb 0.00 in0.0 mm 0.00 in0.0 mm 0.00 in0.0 mm
02:00 PM 77.0°F25.0°C 50.2°F10.1°C 39% 4.0 mph NNE6.4 kmh NNE 6.0 mph9.7 kmh 30.18 in1022.0 mb 0.00 in0.0 mm 0.00 in0.0 mm 0.00 in0.0 mm
02:15 PM 75.7°F24.3°C 51.1°F10.6°C 42% 4.0 mph SSW6.4 kmh SSW 6.0 mph9.7 kmh 30.17 in1021.7 mb 0.00 in0.0 mm 0.00 in0.0 mm 0.00 in0.0 mm
02:30 PM 78.1°F25.6°C 50.4°F10.2°C 38% 5.4 mph SE8.7 kmh SE 9.2 mph14.8 kmh 30.18 in1022.0 mb 0.00 in0.0 mm 0.00 in0.0 mm 0.00 in0.0 mm
02:45 PM 76.8°F24.9°C 51.4°F10.8°C 41% 3.4 mph S5.5 kmh S 6.9 mph11.1 kmh 30.18 in1022.0 mb 0.00 in0.0 mm 0.00 in0.0 mm 0.00 in0.0 mm
03:00 PM 77.4°F25.2°C 51.9°F11.1°C 41% 3.9 mph SW6.3 kmh SW 6.9 mph11.1 kmh 30.18 in1022.0 mb 0.00 in0.0 mm 0.00 in0.0 mm 0.00 in0.0 mm
03:15 PM 76.1°F24.5°C 52.0°F11.1°C 43% 3.4 mph E5.5 kmh E 4.5 mph7.2 kmh 30.18 in1022.0 mb 0.00 in0.0 mm 0.00 in0.0 mm 0.00 in0.0 mm
03:30 PM 73.8°F23.2°C 49.9°F9.9°C 43% 3.0 mph SW4.8 kmh SW 5.4 mph8.7 kmh 30.19 in1022.4 mb 0.00 in0.0 mm 0.00 in0.0 mm 0.00 in0.0 mm
03:45 PM 73.2°F22.9°C 51.8°F11.0°C 47% 3.4 mph SW5.5 kmh SW 5.4 mph8.7 kmh 30.19 in1022.4 mb 0.00 in0.0 mm 0.00 in0.0 mm 0.00 in0.0 mm
04:00 PM 73.2°F22.9°C 51.8°F11.0°C 47% 3.0 mph SE4.8 kmh SE 6.9 mph11.1 kmh 30.19 in1022.4 mb 0.00 in0.0 mm 0.00 in0.0 mm 0.00 in0.0 mm
04:15 PM 71.8°F22.1°C 51.1°F10.6°C 48% 3.4 mph S5.5 kmh S 5.4 mph8.7 kmh 30.18 in1022.0 mb 0.00 in0.0 mm 0.00 in0.0 mm 0.00 in0.0 mm
04:30 PM 71.6°F22.0°C 51.5°F10.8°C 49% 3.1 mph WSW5.0 kmh WSW 3.8 mph6.1 kmh 30.18 in1022.0 mb 0.00 in0.0 mm 0.00 in0.0 mm 0.00 in0.0 mm
04:45 PM 70.9°F21.6°C 51.3°F10.7°C 50% 2.6 mph SE4.2 kmh SE 4.5 mph7.2 kmh 30.19 in1022.4 mb 0.00 in0.0 mm 0.00 in0.0 mm 0.00 in0.0 mm
05:00 PM 70.3°F21.3°C 50.8°F10.4°C 50% 3.8 mph SSE6.1 kmh SSE 6.9 mph11.1 kmh 30.18 in1022.0 mb 0.00 in0.0 mm 0.00 in0.0 mm 0.00 in0.0 mm
05:15 PM 69.6°F20.9°C 51.2°F10.7°C 52% 3.0 mph NE4.8 kmh NE 5.4 mph8.7 kmh 30.18 in1022.0 mb 0.00 in0.0 mm 0.00 in0.0 mm 0.00 in0.0 mm
05:30 PM 69.6°F20.9°C 51.2°F10.7°C 52% 3.2 mph S5.1 kmh S 4.5 mph7.2 kmh 30.19 in1022.4 mb 0.00 in0.0 mm 0.00 in0.0 mm 0.00 in0.0 mm
05:45 PM 69.1°F20.6°C 50.7°F10.4°C 52% 3.1 mph ESE5.0 kmh ESE 6.9 mph11.1 kmh 30.19 in1022.4 mb 0.00 in0.0 mm 0.00 in0.0 mm 0.00 in0.0 mm
06:00 PM 68.4°F20.2°C 50.1°F10.1°C 52% 3.3 mph S5.3 kmh S 5.4 mph8.7 kmh 30.18 in1022.0 mb 0.00 in0.0 mm 0.00 in0.0 mm 0.00 in0.0 mm
06:15 PM 68.0°F20.0°C 50.3°F10.2°C 53% 3.3 mph SW5.3 kmh SW 5.4 mph8.7 kmh 30.19 in1022.4 mb 0.00 in0.0 mm 0.00 in0.0 mm 0.00 in0.0 mm
06:30 PM 67.3°F19.6°C 50.6°F10.3°C 55% 3.5 mph WSW5.6 kmh WSW 6.0 mph9.7 kmh 30.20 in1022.7 mb 0.00 in0.0 mm 0.00 in0.0 mm 0.00 in0.0 mm
06:45 PM 66.7°F19.3°C 50.1°F10.1°C 55% 3.3 mph S5.3 kmh S 5.4 mph8.7 kmh 30.20 in1022.7 mb 0.00 in0.0 mm 0.00 in0.0 mm 0.00 in0.0 mm
07:00 PM 66.4°F19.1°C 50.2°F10.1°C 56% 2.8 mph S4.5 kmh S 5.4 mph8.7 kmh 30.20 in1022.7 mb 0.00 in0.0 mm 0.00 in0.0 mm 0.00 in0.0 mm
07:15 PM 65.5°F18.6°C 50.3°F10.2°C 58% 2.1 mph SW3.4 kmh SW 3.8 mph6.1 kmh 30.19 in1022.4 mb 0.00 in0.0 mm 0.00 in0.0 mm 0.00 in0.0 mm
07:30 PM 64.9°F18.3°C 50.3°F10.2°C 59% 1.6 mph SE2.6 kmh SE 3.1 mph5.0 kmh 30.19 in1022.4 mb 0.00 in0.0 mm 0.00 in0.0 mm 0.00 in0.0 mm
07:45 PM 64.6°F18.1°C 50.4°F10.2°C 60% 1.9 mph E3.1 kmh E 4.5 mph7.2 kmh 30.20 in1022.7 mb 0.00 in0.0 mm 0.00 in0.0 mm 0.00 in0.0 mm
08:00 PM 63.7°F17.6°C 50.0°F10.0°C 61% 1.6 mph SSW2.6 kmh SSW 3.8 mph6.1 kmh 30.21 in1023.0 mb 0.00 in0.0 mm 0.00 in0.0 mm 0.00 in0.0 mm
08:15 PM 63.0°F17.2°C 49.8°F9.9°C 62% 1.5 mph WSW2.4 kmh WSW 2.2 mph3.5 kmh 30.21 in1023.0 mb 0.00 in0.0 mm 0.00 in0.0 mm 0.00 in0.0 mm
08:30 PM 61.9°F16.6°C 49.6°F9.8°C 64% 1.2 mph W1.9 kmh W 2.2 mph3.5 kmh 30.22 in1023.4 mb 0.00 in0.0 mm 0.00 in0.0 mm 0.00 in0.0 mm
08:45 PM 60.6°F15.9°C 50.0°F10.0°C 68% 1.0 mph SW1.6 kmh SW 1.6 mph2.6 kmh 30.22 in1023.4 mb 0.00 in0.0 mm 0.00 in0.0 mm 0.00 in0.0 mm
09:00 PM 59.9°F15.5°C 49.7°F9.8°C 69% 0.7 mph SW1.1 kmh SW 1.6 mph2.6 kmh 30.23 in1023.7 mb 0.00 in0.0 mm 0.00 in0.0 mm 0.00 in0.0 mm
09:15 PM 59.0°F15.0°C 49.2°F9.6°C 70% 0.7 mph SW1.1 kmh SW 1.6 mph2.6 kmh 30.23 in1023.7 mb 0.00 in0.0 mm 0.00 in0.0 mm 0.00 in0.0 mm
09:30 PM 57.7°F14.3°C 48.8°F9.3°C 72% 0.3 mph SW0.5 kmh SW 1.6 mph2.6 kmh 30.24 in1024.0 mb 0.00 in0.0 mm 0.00 in0.0 mm 0.00 in0.0 mm
09:45 PM 56.5°F13.6°C 48.7°F9.3°C 75% Calm Calm 0.7 mph1.1 kmh 30.25 in1024.4 mb 0.00 in0.0 mm 0.00 in0.0 mm 0.00 in0.0 mm
10:00 PM 55.6°F13.1°C 48.1°F8.9°C 76% 0.4 mph WSW0.6 kmh WSW 1.6 mph2.6 kmh 30.24 in1024.0 mb 0.00 in0.0 mm 0.00 in0.0 mm 0.00 in0.0 mm
10:15 PM 54.1°F12.3°C 47.4°F8.6°C 78% 0.1 mph N0.2 kmh N 1.6 mph2.6 kmh 30.24 in1024.0 mb 0.00 in0.0 mm 0.00 in0.0 mm 0.00 in0.0 mm
10:30 PM 53.1°F11.7°C 47.4°F8.6°C 81% 0.3 mph WSW0.5 kmh WSW 1.6 mph2.6 kmh 30.24 in1024.0 mb 0.00 in0.0 mm 0.00 in0.0 mm 0.00 in0.0 mm
10:45 PM 52.0°F11.1°C 46.7°F8.2°C 82% Calm Calm 0.7 mph1.1 kmh 30.24 in1024.0 mb 0.00 in0.0 mm 0.00 in0.0 mm 0.00 in0.0 mm
11:00 PM 51.8°F11.0°C 47.1°F8.4°C 84% 0.3 mph NW0.5 kmh NW 0.7 mph1.1 kmh 30.24 in1024.0 mb 0.00 in0.0 mm 0.00 in0.0 mm 0.00 in0.0 mm
11:15 PM 51.6°F10.9°C 47.6°F8.7°C 86% 0.4 mph NW0.6 kmh NW 0.7 mph1.1 kmh 30.24 in1024.0 mb 0.00 in0.0 mm 0.00 in0.0 mm 0.00 in0.0 mm
11:30 PM 50.9°F10.5°C 46.9°F8.3°C 86% 0.5 mph NW0.8 kmh NW 0.7 mph1.1 kmh 30.24 in1024.0 mb 0.00 in0.0 mm 0.00 in0.0 mm 0.00 in0.0 mm
11:45 PM 50.5°F10.3°C 46.8°F8.2°C 87% 0.5 mph WSW0.8 kmh WSW 0.7 mph1.1 kmh 30.25 in1024.4 mb 0.00 in0.0 mm 0.00 in0.0 mm 0.00 in0.0 mm